Time,TemperatureF,DewpointF,PressureIn,WindDirection,WindDirectionDegrees,WindSpeedMPH,WindSpeedGustMPH,Humidity,HourlyPrecipIn,Conditions,Clouds,dailyrainin,SoftwareType,DateUTC
2013-09-26 00:00:00,62.9,58.6,29.25,North,0,0.0,0.0,86,0.00,CLR,,0.00,WeatherDisplay:10.37,2013-09-26 04:00:00,
2013-09-26 00:01:00,62.9,58.6,29.25,North,0,0.0,0.0,86,0.00,CLR,,0.00,WeatherDisplay:10.37,2013-09-26 04:01:00,
2013-09-26 00:06:00,62.9,59.0,29.25,North,0,0.0,0.0,87,0.00,CLR,,0.00,WeatherDisplay:10.37,2013-09-26 04:06:00,
2013-09-26 00:11:00,62.7,58.8,29.25,North,0,0.0,0.0,87,0.00,CLR,,0.00,WeatherDisplay:10.37,2013-09-26 04:11:00,
2013-09-26 00:16:00,62.7,58.8,29.25,North,0,0.0,0.0,87,0.00,CLR,,0.00,WeatherDisplay:10.37,2013-09-26 04:16:00,
2013-09-26 00:21:00,62.6,58.7,29.25,North,0,0.0,0.0,87,0.00,CLR,,0.00,WeatherDisplay:10.37,2013-09-26 04:21:00,
2013-09-26 00:26:00,62.6,58.7,29.25,North,0,0.0,0.0,87,0.00,CLR,,0.00,WeatherDisplay:10.37,2013-09-26 04:26:00,
2013-09-26 00:31:00,62.4,58.2,29.25,North,0,0.0,0.0,86,0.00,CLR,,0.00,WeatherDisplay:10.37,2013-09-26 04:31:00,
2013-09-26 00:36:00,62.4,58.2,29.25,North,0,0.0,0.0,86,0.00,CLR,,0.00,WeatherDisplay:10.37,2013-09-26 04:36:00,
2013-09-26 00:41:00,62.4,58.5,29.25,North,0,0.0,0.0,87,0.00,CLR,,0.00,WeatherDisplay:10.37,2013-09-26 04:41:00,
2013-09-26 00:46:00,62.4,58.5,29.25,North,0,0.0,0.0,87,0.00,CLR,,0.00,WeatherDisplay:10.37,2013-09-26 04:46:00,
2013-09-26 00:51:00,62.3,58.1,29.25,North,0,0.0,0.0,86,0.00,CLR,,0.00,WeatherDisplay:10.37,2013-09-26 04:51:00,
2013-09-26 00:56:00,62.1,57.9,29.25,North,0,0.0,0.0,86,0.00,CLR,,0.00,WeatherDisplay:10.37,2013-09-26 04:56:00,
2013-09-26 01:01:00,62.1,57.9,29.25,North,0,0.0,0.0,86,0.00,CLR,,0.00,WeatherDisplay:10.37,2013-09-26 05:01:00,
2013-09-26 01:06:00,62.0,57.8,29.25,North,0,0.0,0.0,86,0.00,CLR,,0.00,WeatherDisplay:10.37,2013-09-26 05:06:00,
2013-09-26 01:11:00,62.0,57.8,29.25,North,0,0.0,0.0,86,0.00,CLR,,0.00,WeatherDisplay:10.37,2013-09-26 05:11:00,
2013-09-26 01:16:00,62.0,57.4,29.25,North,0,0.0,0.0,85,0.00,CLR,,0.00,WeatherDisplay:10.37,2013-09-26 05:16:00,
2013-09-26 01:21:00,62.0,57.4,29.25,North,0,0.0,0.0,85,0.00,CLR,,0.00,WeatherDisplay:10.37,2013-09-26 05:21:00,
2013-09-26 01:26:00,62.0,57.4,29.25,North,0,0.0,0.0,85,0.00,CLR,,0.00,WeatherDisplay:10.37,2013-09-26 05:26:00,
2013-09-26 01:31:00,62.0,57.4,29.25,North,0,0.0,0.0,85,0.00,CLR,,0.00,WeatherDisplay:10.37,2013-09-26 05:31:00,
2013-09-26 01:36:00,62.0,57.4,29.25,North,0,0.0,0.0,85,0.00,CLR,,0.00,WeatherDisplay:10.37,2013-09-26 05:36:00,
2013-09-26 01:41:00,62.0,57.4,29.25,North,0,0.0,0.0,85,0.00,CLR,,0.00,WeatherDisplay:10.37,2013-09-26 05:41:00,
2013-09-26 01:46:00,62.0,57.4,29.25,North,0,0.0,0.0,85,0.00,CLR,,0.00,WeatherDisplay:10.37,2013-09-26 05:46:00,
2013-09-26 01:51:00,62.0,57.8,29.25,North,0,0.0,0.0,86,0.00,CLR,,0.00,WeatherDisplay:10.37,2013-09-26 05:51:00,
2013-09-26 01:56:00,62.0,57.8,29.25,North,0,0.0,0.0,86,0.00,CLR,,0.00,WeatherDisplay:10.37,2013-09-26 05:56:00,
2013-09-26 02:01:00,61.8,57.6,29.25,North,0,0.0,0.0,86,0.00,CLR,,0.00,WeatherDisplay:10.37,2013-09-26 06:01:00,
2013-09-26 02:06:00,61.8,57.6,29.25,North,0,0.0,0.9,86,0.00,CLR,,0.00,WeatherDisplay:10.37,2013-09-26 06:06:00,
2013-09-26 02:11:00,61.6,57.4,29.24,North,6,2.3,0.0,86,0.00,CLR,,0.00,WeatherDisplay:10.37,2013-09-26 06:11:00,
2013-09-26 02:16:00,61.6,57.0,29.24,ENE,64,0.0,0.0,85,0.00,CLR,,0.00,WeatherDisplay:10.37,2013-09-26 06:16:00,
2013-09-26 02:21:00,61.6,57.0,29.24,ENE,59,0.0,0.1,85,0.00,CLR,,0.00,WeatherDisplay:10.37,2013-09-26 06:21:00,
2013-09-26 02:27:00,61.6,56.7,29.24,NE,42,3.5,3.5,84,0.00,CLR,,0.00,WeatherDisplay:10.37,2013-09-26 06:27:00,
2013-09-26 02:32:00,61.6,56.7,29.24,NNE,27,0.0,0.0,84,0.00,CLR,,0.00,WeatherDisplay:10.37,2013-09-26 06:32:00,
2013-09-26 02:37:00,61.6,56.7,29.24,NNE,28,2.3,2.3,84,0.00,CLR,,0.00,WeatherDisplay:10.37,2013-09-26 06:37:00,
2013-09-26 02:42:00,61.6,57.0,29.24,NNE,28,2.3,2.3,85,0.00,CLR,,0.00,WeatherDisplay:10.37,2013-09-26 06:42:00,
2013-09-26 02:47:00,61.6,57.0,29.24,NNE,28,0.0,0.0,85,0.00,CLR,,0.00,WeatherDisplay:10.37,2013-09-26 06:47:00,
2013-09-26 02:52:00,61.6,57.0,29.24,NNE,28,0.0,0.0,85,0.00,CLR,,0.00,WeatherDisplay:10.37,2013-09-26 06:52:00,
2013-09-26 02:57:00,61.5,57.3,29.24,NNE,28,0.0,0.0,86,0.00,CLR,,0.00,WeatherDisplay:10.37,2013-09-26 06:57:00,
2013-09-26 03:02:00,61.5,57.3,29.24,NNE,28,1.0,1.0,86,0.00,CLR,,0.00,WeatherDisplay:10.37,2013-09-26 07:02:00,
2013-09-26 03:07:00,61.5,57.3,29.24,NNE,28,0.0,0.0,86,0.00,CLR,,0.00,WeatherDisplay:10.37,2013-09-26 07:07:00,
2013-09-26 03:12:00,61.3,57.4,29.24,NNE,28,0.0,0.0,87,0.00,CLR,,0.00,WeatherDisplay:10.37,2013-09-26 07:12:00,
2013-09-26 03:17:00,61.3,57.4,29.24,NNE,28,0.0,0.0,87,0.00,CLR,,0.00,WeatherDisplay:10.37,2013-09-26 07:17:00,
2013-09-26 03:22:00,61.2,57.3,29.24,NE,37,0.0,0.0,87,0.00,CLR,,0.00,WeatherDisplay:10.37,2013-09-26 07:22:00,
2013-09-26 03:27:00,61.2,57.3,29.24,NE,37,0.0,0.0,87,0.00,CLR,,0.00,WeatherDisplay:10.37,2013-09-26 07:27:00,
2013-09-26 03:32:00,61.0,57.1,29.24,NE,40,0.0,0.0,87,0.00,CLR,,0.00,WeatherDisplay:10.37,2013-09-26 07:32:00,
2013-09-26 03:37:00,61.0,57.1,29.24,NE,41,2.0,2.0,87,0.00,CLR,,0.00,WeatherDisplay:10.37,2013-09-26 07:37:00,
2013-09-26 03:42:00,61.0,57.1,29.23,NE,40,0.0,0.0,87,0.00,CLR,,0.00,WeatherDisplay:10.37,2013-09-26 07:42:00,
2013-09-26 03:47:00,60.9,57.0,29.23,NNE,27,2.3,2.3,87,0.00,CLR,,0.00,WeatherDisplay:10.37,2013-09-26 07:47:00,
2013-09-26 03:52:00,60.9,57.0,29.23,NE,45,3.5,0.0,87,0.00,CLR,,0.00,WeatherDisplay:10.37,2013-09-26 07:52:00,
2013-09-26 03:57:00,60.7,56.8,29.23,NE,45,2.3,0.0,87,0.00,CLR,,0.00,WeatherDisplay:10.37,2013-09-26 07:57:00,
2013-09-26 04:02:00,60.7,56.8,29.23,NNE,23,3.5,3.5,87,0.00,CLR,,0.00,WeatherDisplay:10.37,2013-09-26 08:02:00,
2013-09-26 04:07:00,60.7,56.8,29.23,NNE,24,0.0,0.0,87,0.00,CLR,,0.00,WeatherDisplay:10.37,2013-09-26 08:07:00,
2013-09-26 04:12:00,60.7,56.8,29.23,NNE,24,0.0,0.0,87,0.00,CLR,,0.00,WeatherDisplay:10.37,2013-09-26 08:12:00,
2013-09-26 04:17:00,60.7,57.1,29.23,NNE,24,2.3,2.3,88,0.00,CLR,,0.00,WeatherDisplay:10.37,2013-09-26 08:17:00,
2013-09-26 04:22:00,60.5,56.9,29.23,North,357,3.5,3.5,88,0.00,CLR,,0.00,WeatherDisplay:10.37,2013-09-26 08:22:00,
2013-09-26 04:27:00,60.5,56.9,29.23,North,357,0.0,0.0,88,0.00,CLR,,0.00,WeatherDisplay:10.37,2013-09-26 08:27:00,
2013-09-26 04:32:00,60.5,56.9,29.23,North,359,0.0,0.0,88,0.00,CLR,,0.00,WeatherDisplay:10.37,2013-09-26 08:32:00,
2013-09-26 04:37:00,60.4,56.8,29.23,North,357,0.0,0.0,88,0.00,CLR,,0.00,WeatherDisplay:10.37,2013-09-26 08:37:00,
2013-09-26 04:42:00,60.4,56.8,29.24,North,357,0.0,0.0,88,0.00,CLR,,0.00,WeatherDisplay:10.37,2013-09-26 08:42:00,
2013-09-26 04:47:00,60.4,56.8,29.24,North,357,0.0,0.0,88,0.00,CLR,,0.00,WeatherDisplay:10.37,2013-09-26 08:47:00,
2013-09-26 04:52:00,60.2,56.9,29.24,North,357,0.0,0.0,89,0.00,CLR,,0.00,WeatherDisplay:10.37,2013-09-26 08:52:00,
2013-09-26 04:57:00,60.2,56.9,29.24,North,357,0.0,0.0,89,0.00,CLR,,0.00,WeatherDisplay:10.37,2013-09-26 08:57:00,
2013-09-26 05:02:00,60.1,56.8,29.24,North,357,0.0,0.0,89,0.00,CLR,,0.00,WeatherDisplay:10.37,2013-09-26 09:02:00,
2013-09-26 05:07:00,60.1,56.8,29.24,North,357,0.0,0.0,89,0.00,CLR,,0.00,WeatherDisplay:10.37,2013-09-26 09:07:00,
2013-09-26 05:12:00,59.9,56.6,29.24,North,357,0.0,0.0,89,0.00,CLR,,0.00,WeatherDisplay:10.37,2013-09-26 09:12:00,
2013-09-26 05:17:00,59.9,56.6,29.24,North,357,0.0,0.0,89,0.00,CLR,,0.00,WeatherDisplay:10.37,2013-09-26 09:17:00,
2013-09-26 05:22:00,59.9,56.6,29.24,North,357,0.0,0.0,89,0.00,CLR,,0.00,WeatherDisplay:10.37,2013-09-26 09:22:00,
2013-09-26 05:27:00,59.9,56.6,29.24,North,357,0.0,0.0,89,0.00,CLR,,0.00,WeatherDisplay:10.37,2013-09-26 09:27:00,
2013-09-26 05:32:00,59.8,56.9,29.24,North,357,0.0,0.0,90,0.00,CLR,,0.00,WeatherDisplay:10.37,2013-09-26 09:32:00,
2013-09-26 05:37:00,59.8,56.9,29.24,North,357,0.0,0.0,90,0.00,CLR,,0.00,WeatherDisplay:10.37,2013-09-26 09:37:00,
2013-09-26 05:42:00,59.6,56.7,29.25,North,357,0.0,0.0,90,0.00,CLR,,0.00,WeatherDisplay:10.37,2013-09-26 09:42:00,
2013-09-26 05:48:00,59.6,56.7,29.25,North,357,0.0,0.0,90,0.00,CLR,,0.00,WeatherDisplay:10.37,2013-09-26 09:48:00,
2013-09-26 05:53:00,59.5,56.6,29.25,North,357,0.0,0.3,90,0.00,CLR,,0.00,WeatherDisplay:10.37,2013-09-26 09:53:00,
2013-09-26 05:58:00,59.3,56.4,29.25,North,359,0.0,0.0,90,0.00,CLR,,0.00,WeatherDisplay:10.37,2013-09-26 09:58:00,
2013-09-26 06:03:00,59.3,56.4,29.25,North,357,0.0,0.0,90,0.00,CLR,,0.00,WeatherDisplay:10.37,2013-09-26 10:03:00,
2013-09-26 06:08:00,59.2,56.3,29.25,North,357,0.0,0.0,90,0.00,CLR,,0.00,WeatherDisplay:10.37,2013-09-26 10:08:00,
2013-09-26 06:13:00,59.2,56.3,29.25,North,357,0.0,0.0,90,0.00,CLR,,0.00,WeatherDisplay:10.37,2013-09-26 10:13:00,
2013-09-26 06:18:00,59.0,56.1,29.25,North,357,0.0,0.0,90,0.00,CLR,,0.00,WeatherDisplay:10.37,2013-09-26 10:18:00,
2013-09-26 06:23:00,59.0,56.4,29.25,North,357,1.1,0.0,91,0.00,CLR,,0.00,WeatherDisplay:10.37,2013-09-26 10:23:00,
2013-09-26 06:28:00,58.9,56.3,29.25,North,357,0.0,0.0,91,0.00,CLR,,0.00,WeatherDisplay:10.37,2013-09-26 10:28:00,
2013-09-26 06:33:00,58.9,56.3,29.25,North,357,0.0,0.0,91,0.00,CLR,,0.00,WeatherDisplay:10.37,2013-09-26 10:33:00,
2013-09-26 06:38:00,58.7,56.1,29.25,North,357,0.0,0.0,91,0.00,CLR,,0.00,WeatherDisplay:10.37,2013-09-26 10:38:00,
2013-09-26 06:43:00,58.7,56.1,29.26,North,357,0.0,0.0,91,0.00,CLR,,0.00,WeatherDisplay:10.37,2013-09-26 10:43:00,
2013-09-26 06:48:00,58.7,56.4,29.26,North,357,0.0,0.0,92,0.00,CLR,,0.00,WeatherDisplay:10.37,2013-09-26 10:48:00,
2013-09-26 06:53:00,58.6,56.3,29.26,North,357,0.0,0.0,92,0.00,CLR,,0.00,WeatherDisplay:10.37,2013-09-26 10:53:00,
2013-09-26 06:58:00,58.4,56.1,29.26,North,357,0.0,0.0,92,0.00,CLR,,0.00,WeatherDisplay:10.37,2013-09-26 10:58:00,
2013-09-26 07:03:00,58.3,56.0,29.26,North,357,0.0,0.0,92,0.00,CLR,,0.00,WeatherDisplay:10.37,2013-09-26 11:03:00,
2013-09-26 07:08:00,58.3,56.0,29.26,North,357,0.0,0.0,92,0.00,CLR,,0.00,WeatherDisplay:10.37,2013-09-26 11:08:00,
2013-09-26 07:13:00,58.3,56.0,29.26,North,357,0.0,0.0,92,0.00,CLR,,0.00,WeatherDisplay:10.37,2013-09-26 11:13:00,
2013-09-26 07:18:00,58.3,56.3,29.26,North,357,0.0,0.0,93,0.00,CLR,,0.00,WeatherDisplay:10.37,2013-09-26 11:18:00,
2013-09-26 07:23:00,58.3,56.3,29.26,North,357,0.0,0.0,93,0.00,CLR,,0.00,WeatherDisplay:10.37,2013-09-26 11:23:00,
2013-09-26 07:28:00,58.3,56.3,29.26,North,357,0.0,0.0,93,0.00,CLR,,0.00,WeatherDisplay:10.37,2013-09-26 11:28:00,
2013-09-26 07:33:00,58.3,56.3,29.26,North,6,0.0,0.0,93,0.00,CLR,,0.00,WeatherDisplay:10.37,2013-09-26 11:33:00,
2013-09-26 07:38:00,58.3,56.3,29.27,North,6,0.0,0.0,93,0.00,CLR,,0.00,WeatherDisplay:10.37,2013-09-26 11:38:00,
2013-09-26 07:43:00,58.3,56.3,29.27,North,6,0.0,0.0,93,0.00,CLR,,0.00,WeatherDisplay:10.37,2013-09-26 11:43:00,
2013-09-26 07:48:00,58.4,56.7,29.27,West,263,0.0,0.0,94,0.00,CLR,,0.00,WeatherDisplay:10.37,2013-09-26 11:48:00,
2013-09-26 07:53:00,58.7,57.0,29.27,West,263,0.0,0.0,94,0.00,CLR,,0.00,WeatherDisplay:10.37,2013-09-26 11:53:00,
2013-09-26 07:58:00,59.2,57.5,29.27,West,263,0.0,0.0,94,0.00,CLR,,0.00,WeatherDisplay:10.37,2013-09-26 11:58:00,
2013-09-26 08:03:00,59.6,57.9,29.27,West,267,0.0,0.0,94,0.00,CLR,,0.00,WeatherDisplay:10.37,2013-09-26 12:03:00,
2013-09-26 08:08:00,60.1,58.4,29.27,NNE,17,0.0,0.0,94,0.00,CLR,,0.00,WeatherDisplay:10.37,2013-09-26 12:08:00,
2013-09-26 08:13:00,60.5,58.8,29.27,NNE,24,1.0,1.0,94,0.00,CLR,,0.00,WeatherDisplay:10.37,2013-09-26 12:13:00,
2013-09-26 08:18:00,60.9,58.9,29.27,NNE,24,0.0,0.0,93,0.00,CLR,,0.00,WeatherDisplay:10.37,2013-09-26 12:18:00,
2013-09-26 08:23:00,61.0,58.7,29.28,NNE,24,1.0,1.0,92,0.00,CLR,,0.00,WeatherDisplay:10.37,2013-09-26 12:23:00,
2013-09-26 08:28:00,61.2,58.9,29.28,NNE,28,0.0,0.0,92,0.00,CLR,,0.00,WeatherDisplay:10.37,2013-09-26 12:28:00,
2013-09-26 08:33:00,61.3,58.7,29.28,NNE,16,3.5,3.5,91,0.00,CLR,,0.00,WeatherDisplay:10.37,2013-09-26 12:33:00,
2013-09-26 08:38:00,61.3,58.3,29.29,North,1,0.0,0.0,90,0.00,CLR,,0.00,WeatherDisplay:10.37,2013-09-26 12:38:00,
2013-09-26 08:43:00,61.3,58.3,29.29,North,0,0.0,0.0,90,0.00,CLR,,0.00,WeatherDisplay:10.37,2013-09-26 12:43:00,
2013-09-26 08:48:00,61.5,58.5,29.29,North,0,0.0,0.0,90,0.00,CLR,,0.00,WeatherDisplay:10.37,2013-09-26 12:48:00,
2013-09-26 08:53:00,61.5,58.5,29.29,NNE,17,0.0,0.0,90,0.00,CLR,,0.00,WeatherDisplay:10.37,2013-09-26 12:53:00,
2013-09-26 08:58:00,61.6,58.3,29.29,NNE,17,0.0,0.0,89,0.00,CLR,,0.00,WeatherDisplay:10.37,2013-09-26 12:58:00,
2013-09-26 09:03:00,61.8,58.5,29.29,NNE,30,0.0,0.0,89,0.00,CLR,,0.00,WeatherDisplay:10.37,2013-09-26 13:03:00,
2013-09-26 09:08:00,62.0,58.7,29.29,NNE,25,1.1,0.0,89,0.00,CLR,,0.00,WeatherDisplay:10.37,2013-09-26 13:08:00,
2013-09-26 09:13:00,62.3,58.7,29.29,North,0,3.5,0.0,88,0.00,CLR,,0.00,WeatherDisplay:10.37,2013-09-26 13:13:00,
2013-09-26 09:18:00,62.4,58.5,29.29,NNW,339,4.6,4.6,87,0.00,CLR,,0.00,WeatherDisplay:10.37,2013-09-26 13:18:00,
2013-09-26 09:23:00,62.7,58.8,29.30,NE,49,1.1,1.1,87,0.00,CLR,,0.00,WeatherDisplay:10.37,2013-09-26 13:23:00,
2013-09-26 09:28:00,63.1,58.8,29.30,NE,47,0.0,0.0,86,0.00,CLR,,0.00,WeatherDisplay:10.37,2013-09-26 13:28:00,
2013-09-26 09:33:00,63.2,58.6,29.30,NNE,32,3.5,3.5,85,0.00,CLR,,0.00,WeatherDisplay:10.37,2013-09-26 13:33:00,
2013-09-26 09:38:00,63.5,58.6,29.31,NE,49,0.0,0.0,84,0.00,CLR,,0.00,WeatherDisplay:10.37,2013-09-26 13:38:00,
2013-09-26 09:43:00,63.9,58.6,29.31,North,8,3.5,3.5,83,0.00,CLR,,0.00,WeatherDisplay:10.37,2013-09-26 13:43:00,
2013-09-26 09:48:00,63.9,58.3,29.31,North,1,5.8,5.8,82,0.00,CLR,,0.00,WeatherDisplay:10.37,2013-09-26 13:48:00,
2013-09-26 09:53:00,64.0,58.1,29.31,NE,48,3.5,3.5,81,0.00,CLR,,0.00,WeatherDisplay:10.37,2013-09-26 13:53:00,
2013-09-26 09:58:00,64.2,58.2,29.31,NE,34,2.3,2.3,81,0.00,CLR,,0.00,WeatherDisplay:10.37,2013-09-26 13:58:00,
2013-09-26 10:03:00,64.5,58.5,29.31,NNE,24,2.3,2.3,81,0.00,CLR,,0.00,WeatherDisplay:10.37,2013-09-26 14:03:00,
2013-09-26 10:09:00,64.8,58.5,29.32,NE,37,2.3,2.3,80,0.00,CLR,,0.00,WeatherDisplay:10.37,2013-09-26 14:09:00,
2013-09-26 10:14:00,65.0,58.0,29.32,North,0,4.6,4.6,78,0.00,CLR,,0.00,WeatherDisplay:10.37,2013-09-26 14:14:00,
2013-09-26 10:19:00,65.3,58.6,29.32,NNE,17,0.0,0.1,79,0.00,CLR,,0.00,WeatherDisplay:10.37,2013-09-26 14:19:00,
2013-09-26 10:24:00,65.5,58.1,29.32,NE,48,0.0,0.0,77,0.00,CLR,,0.00,WeatherDisplay:10.37,2013-09-26 14:24:00,
2013-09-26 10:29:00,65.6,58.2,29.32,NNE,20,0.0,2.0,77,0.00,CLR,,0.00,WeatherDisplay:10.37,2013-09-26 14:29:00,
2013-09-26 10:34:00,65.8,58.0,29.32,NE,35,1.1,1.1,76,0.00,CLR,,0.00,WeatherDisplay:10.37,2013-09-26 14:34:00,
2013-09-26 10:39:00,66.1,57.9,29.32,NNE,14,5.8,5.8,75,0.00,CLR,,0.00,WeatherDisplay:10.37,2013-09-26 14:39:00,
2013-09-26 10:44:00,66.3,58.1,29.32,NNE,13,0.0,1.1,75,0.00,CLR,,0.00,WeatherDisplay:10.37,2013-09-26 14:44:00,
2013-09-26 10:49:00,66.6,58.4,29.32,NNE,13,1.1,0.0,75,0.00,CLR,,0.00,WeatherDisplay:10.37,2013-09-26 14:49:00,
2013-09-26 10:54:00,66.8,57.5,29.32,NW,323,3.5,3.5,72,0.00,CLR,,0.00,WeatherDisplay:10.37,2013-09-26 14:54:00,
2013-09-26 10:59:00,66.8,57.1,29.32,North,359,8.1,8.1,71,0.00,CLR,,0.00,WeatherDisplay:10.37,2013-09-26 14:59:00,
2013-09-26 11:04:00,66.9,56.4,29.32,NNE,21,5.8,5.8,69,0.00,CLR,,0.00,WeatherDisplay:10.37,2013-09-26 15:04:00,
2013-09-26 11:09:00,67.1,56.6,29.32,ENE,58,3.5,3.5,69,0.00,CLR,,0.00,WeatherDisplay:10.37,2013-09-26 15:09:00,
2013-09-26 11:14:00,67.3,56.4,29.32,NE,47,3.5,3.5,68,0.00,CLR,,0.00,WeatherDisplay:10.37,2013-09-26 15:14:00,
2013-09-26 11:19:00,67.4,56.5,29.32,NE,41,1.1,1.1,68,0.00,CLR,,0.00,WeatherDisplay:10.37,2013-09-26 15:19:00,
2013-09-26 11:24:00,67.8,56.9,29.32,NNE,16,8.1,0.0,68,0.00,CLR,,0.00,WeatherDisplay:10.37,2013-09-26 15:24:00,
2013-09-26 11:29:00,68.1,57.1,29.32,NNE,24,3.5,3.5,68,0.00,CLR,,0.00,WeatherDisplay:10.37,2013-09-26 15:29:00,
2013-09-26 11:34:00,68.3,56.5,29.32,ENE,65,0.0,0.0,66,0.00,CLR,,0.00,WeatherDisplay:10.37,2013-09-26 15:34:00,
2013-09-26 11:39:00,68.4,56.2,29.33,NW,319,5.8,5.8,65,0.00,CLR,,0.00,WeatherDisplay:10.37,2013-09-26 15:39:00,
2013-09-26 11:44:00,68.8,55.2,29.33,NNE,27,1.1,0.0,62,0.00,CLR,,0.00,WeatherDisplay:10.37,2013-09-26 15:44:00,
2013-09-26 11:49:00,69.1,55.5,29.33,NE,49,1.1,1.1,62,0.00,CLR,,0.00,WeatherDisplay:10.37,2013-09-26 15:49:00,
2013-09-26 11:54:00,69.4,55.8,29.33,North,357,3.5,3.5,62,0.00,CLR,,0.00,WeatherDisplay:10.37,2013-09-26 15:54:00,
2013-09-26 11:59:00,69.4,54.9,29.33,NNE,13,6.9,6.9,60,0.00,CLR,,0.00,WeatherDisplay:10.37,2013-09-26 15:59:00,
2013-09-26 12:04:00,69.3,55.7,29.33,NNE,25,3.5,3.5,62,0.00,CLR,,0.00,WeatherDisplay:10.37,2013-09-26 16:04:00,
2013-09-26 12:09:00,69.3,55.7,29.33,NNE,21,2.3,2.3,62,0.00,CLR,,0.00,WeatherDisplay:10.37,2013-09-26 16:09:00,
2013-09-26 12:14:00,69.3,55.3,29.33,NNE,17,3.5,3.5,61,0.00,CLR,,0.00,WeatherDisplay:10.37,2013-09-26 16:14:00,
2013-09-26 12:19:00,69.8,55.3,29.33,North,7,2.0,2.0,60,0.00,CLR,,0.00,WeatherDisplay:10.37,2013-09-26 16:19:00,
2013-09-26 12:24:00,70.3,55.8,29.32,ESE,121,0.0,1.9,60,0.00,CLR,,0.00,WeatherDisplay:10.37,2013-09-26 16:24:00,
2013-09-26 12:29:00,70.9,55.9,29.32,ENE,75,1.1,0.0,59,0.00,CLR,,0.00,WeatherDisplay:10.37,2013-09-26 16:29:00,
2013-09-26 12:34:00,71.3,54.8,29.32,East,92,0.0,0.0,56,0.00,CLR,,0.00,WeatherDisplay:10.37,2013-09-26 16:34:00,
2013-09-26 12:39:00,71.8,55.7,29.32,ESE,116,3.5,3.5,57,0.00,CLR,,0.00,WeatherDisplay:10.37,2013-09-26 16:39:00,
2013-09-26 12:44:00,72.1,54.5,29.32,NE,41,5.8,5.8,54,0.00,CLR,,0.00,WeatherDisplay:10.37,2013-09-26 16:44:00,
2013-09-26 12:49:00,72.1,53.5,29.32,North,354,5.8,5.8,52,0.00,CLR,,0.00,WeatherDisplay:10.37,2013-09-26 16:49:00,
2013-09-26 12:54:00,72.1,55.0,29.32,SE,131,2.3,2.3,55,0.00,CLR,,0.00,WeatherDisplay:10.37,2013-09-26 16:54:00,
2013-09-26 13:00:00,72.5,56.4,29.32,NNE,27,0.0,0.0,57,0.00,CLR,,0.00,WeatherDisplay:10.37,2013-09-26 17:00:00,
2013-09-26 13:05:00,72.8,55.7,29.32,NE,37,3.5,3.5,55,0.00,CLR,,0.00,WeatherDisplay:10.37,2013-09-26 17:05:00,
2013-09-26 13:10:00,72.5,55.9,29.31,NE,54,1.1,2.0,56,0.00,CLR,,0.00,WeatherDisplay:10.37,2013-09-26 17:10:00,
2013-09-26 13:15:00,72.8,54.7,29.31,East,97,0.0,0.0,53,0.00,CLR,,0.00,WeatherDisplay:10.37,2013-09-26 17:15:00,
2013-09-26 13:20:00,73.3,55.1,29.31,East,88,4.6,4.6,53,0.00,CLR,,0.00,WeatherDisplay:10.37,2013-09-26 17:20:00,
2013-09-26 13:25:00,73.3,54.6,29.31,North,359,8.1,8.1,52,0.00,CLR,,0.00,WeatherDisplay:10.37,2013-09-26 17:25:00,
2013-09-26 13:30:00,73.3,54.6,29.31,NW,326,8.1,8.1,52,0.00,CLR,,0.00,WeatherDisplay:10.37,2013-09-26 17:30:00,
2013-09-26 13:35:00,73.3,55.1,29.31,North,0,5.8,5.8,53,0.00,CLR,,0.00,WeatherDisplay:10.37,2013-09-26 17:35:00,
2013-09-26 13:40:00,73.5,53.2,29.31,NE,38,8.0,8.0,49,0.00,CLR,,0.00,WeatherDisplay:10.37,2013-09-26 17:40:00,
2013-09-26 13:45:00,73.7,53.9,29.31,NE,35,1.1,1.1,50,0.00,CLR,,0.00,WeatherDisplay:10.37,2013-09-26 17:45:00,
2013-09-26 13:50:00,73.7,52.2,29.31,East,90,4.6,4.6,47,0.00,CLR,,0.00,WeatherDisplay:10.37,2013-09-26 17:50:00,
2013-09-26 13:55:00,74.4,54.5,29.30,East,95,2.3,2.3,50,0.00,CLR,,0.00,WeatherDisplay:10.37,2013-09-26 17:55:00,
2013-09-26 14:00:00,74.4,54.5,29.30,NE,42,5.8,5.8,50,0.00,CLR,,0.00,WeatherDisplay:10.37,2013-09-26 18:00:00,
2013-09-26 14:06:00,74.9,53.9,29.30,North,10,12.7,12.7,48,0.00,CLR,,0.00,WeatherDisplay:10.37,2013-09-26 18:06:00,
2013-09-26 14:11:00,75.1,51.7,29.29,East,93,4.6,4.6,44,0.00,CLR,,0.00,WeatherDisplay:10.37,2013-09-26 18:11:00,
2013-09-26 14:16:00,74.6,51.9,29.29,ENE,61,8.1,8.1,45,0.00,CLR,,0.00,WeatherDisplay:10.37,2013-09-26 18:16:00,
2013-09-26 14:21:00,74.7,51.3,29.29,NNE,25,3.5,3.5,44,0.00,CLR,,0.00,WeatherDisplay:10.37,2013-09-26 18:21:00,
2013-09-26 14:26:00,74.6,50.6,29.29,NNE,31,3.5,3.5,43,0.00,CLR,,0.00,WeatherDisplay:10.37,2013-09-26 18:26:00,
2013-09-26 14:31:00,74.4,52.3,29.29,North,0,1.1,1.1,46,0.00,CLR,,0.00,WeatherDisplay:10.37,2013-09-26 18:31:00,
2013-09-26 14:36:00,74.4,52.9,29.29,NE,51,5.8,0.0,47,0.00,CLR,,0.00,WeatherDisplay:10.37,2013-09-26 18:36:00,
2013-09-26 14:41:00,74.4,52.3,29.29,NNE,24,3.5,3.5,46,0.00,CLR,,0.00,WeatherDisplay:10.37,2013-09-26 18:41:00,
2013-09-26 14:46:00,74.6,51.9,29.29,NNE,30,3.5,3.5,45,0.00,CLR,,0.00,WeatherDisplay:10.37,2013-09-26 18:46:00,
2013-09-26 14:51:00,74.7,53.1,29.29,North,359,5.0,5.0,47,0.00,CLR,,0.00,WeatherDisplay:10.37,2013-09-26 18:51:00,
2013-09-26 14:56:00,74.6,52.4,29.29,North,356,4.6,4.6,46,0.00,CLR,,0.00,WeatherDisplay:10.37,2013-09-26 18:56:00,
2013-09-26 15:01:00,74.4,52.9,29.29,North,1,2.3,2.3,47,0.00,CLR,,0.00,WeatherDisplay:10.37,2013-09-26 19:01:00,
2013-09-26 15:06:00,74.6,54.2,29.29,North,7,3.5,3.5,49,0.00,CLR,,0.00,WeatherDisplay:10.37,2013-09-26 19:06:00,
2013-09-26 15:11:00,74.9,54.4,29.29,NE,37,1.1,0.0,49,0.00,CLR,,0.00,WeatherDisplay:10.37,2013-09-26 19:11:00,
2013-09-26 15:16:00,74.9,53.3,29.29,ENE,68,4.6,4.6,47,0.00,CLR,,0.00,WeatherDisplay:10.37,2013-09-26 19:16:00,
2013-09-26 15:21:00,74.9,53.3,29.29,ENE,62,6.9,6.9,47,0.00,CLR,,0.00,WeatherDisplay:10.37,2013-09-26 19:21:00,
2013-09-26 15:26:00,75.3,52.5,29.29,NE,42,0.0,0.0,45,0.00,CLR,,0.00,WeatherDisplay:10.37,2013-09-26 19:26:00,
2013-09-26 15:32:00,75.4,52.0,29.29,NE,49,5.0,5.0,44,0.00,CLR,,0.00,WeatherDisplay:10.37,2013-09-26 19:32:00,
2013-09-26 15:37:00,75.4,51.3,29.29,NNE,32,12.7,12.7,43,0.00,CLR,,0.00,WeatherDisplay:10.37,2013-09-26 19:37:00,
2013-09-26 15:42:00,75.3,51.3,29.29,ESE,103,0.0,0.0,43,0.00,CLR,,0.00,WeatherDisplay:10.37,2013-09-26 19:42:00,
2013-09-26 15:47:00,75.3,50.6,29.29,North,10,4.6,4.6,42,0.00,CLR,,0.00,WeatherDisplay:10.37,2013-09-26 19:47:00,
2013-09-26 15:52:00,75.3,51.3,29.29,North,1,5.8,5.8,43,0.00,CLR,,0.00,WeatherDisplay:10.37,2013-09-26 19:52:00,
2013-09-26 15:57:00,75.8,52.3,29.29,NNE,28,2.3,2.4,44,0.00,CLR,,0.00,WeatherDisplay:10.37,2013-09-26 19:57:00,
2013-09-26 16:02:00,76.0,52.5,29.29,North,357,3.5,3.5,44,0.00,CLR,,0.00,WeatherDisplay:10.37,2013-09-26 20:02:00,
2013-09-26 16:07:00,76.3,52.2,29.29,East,82,5.8,5.8,43,0.00,CLR,,0.00,WeatherDisplay:10.37,2013-09-26 20:07:00,
2013-09-26 16:12:00,76.1,53.8,29.29,ESE,104,1.1,1.1,46,0.00,CLR,,0.00,WeatherDisplay:10.37,2013-09-26 20:12:00,
2013-09-26 16:17:00,76.1,51.3,29.29,North,8,6.9,6.9,42,0.00,CLR,,0.00,WeatherDisplay:10.37,2013-09-26 20:17:00,
2013-09-26 16:22:00,76.1,53.2,29.29,NNE,17,1.1,1.1,45,0.00,CLR,,0.00,WeatherDisplay:10.37,2013-09-26 20:22:00,
2013-09-26 16:27:00,76.0,52.5,29.29,NNE,28,10.4,10.4,44,0.00,CLR,,0.00,WeatherDisplay:10.37,2013-09-26 20:27:00,
2013-09-26 16:32:00,76.0,52.5,29.29,NE,35,1.1,2.6,44,0.00,CLR,,0.00,WeatherDisplay:10.37,2013-09-26 20:32:00,
2013-09-26 16:37:00,76.1,52.0,29.29,SE,128,1.1,1.1,43,0.00,CLR,,0.00,WeatherDisplay:10.37,2013-09-26 20:37:00,
2013-09-26 16:42:00,76.0,52.5,29.29,East,96,4.6,4.6,44,0.00,CLR,,0.00,WeatherDisplay:10.37,2013-09-26 20:42:00,
2013-09-26 16:47:00,76.1,53.8,29.29,NE,55,0.0,0.9,46,0.00,CLR,,0.00,WeatherDisplay:10.37,2013-09-26 20:47:00,
2013-09-26 16:52:00,76.0,53.1,29.29,NE,37,4.6,4.6,45,0.00,CLR,,0.00,WeatherDisplay:10.37,2013-09-26 20:52:00,
2013-09-26 16:57:00,75.8,52.9,29.29,North,0,2.3,4.0,45,0.00,CLR,,0.00,WeatherDisplay:10.37,2013-09-26 20:57:00,
2013-09-26 17:02:00,75.8,53.5,29.29,North,0,2.3,0.0,46,0.00,CLR,,0.00,WeatherDisplay:10.37,2013-09-26 21:02:00,
2013-09-26 17:07:00,75.8,53.5,29.29,NNE,24,5.8,5.8,46,0.00,CLR,,0.00,WeatherDisplay:10.37,2013-09-26 21:07:00,
2013-09-26 17:12:00,75.6,53.4,29.29,NNE,13,1.1,1.1,46,0.00,CLR,,0.00,WeatherDisplay:10.37,2013-09-26 21:12:00,
2013-09-26 17:17:00,75.6,53.9,29.29,NNE,21,2.3,2.3,47,0.00,CLR,,0.00,WeatherDisplay:10.37,2013-09-26 21:17:00,
2013-09-26 17:22:00,75.6,53.9,29.29,North,7,8.1,8.1,47,0.00,CLR,,0.00,WeatherDisplay:10.37,2013-09-26 21:22:00,
2013-09-26 17:27:00,75.3,53.7,29.30,ENE,61,0.0,0.0,47,0.00,CLR,,0.00,WeatherDisplay:10.37,2013-09-26 21:27:00,
2013-09-26 17:32:00,75.1,55.7,29.30,NE,37,2.3,2.3,51,0.00,CLR,,0.00,WeatherDisplay:10.37,2013-09-26 21:32:00,
2013-09-26 17:38:00,74.6,55.3,29.30,NE,34,1.1,1.1,51,0.00,CLR,,0.00,WeatherDisplay:10.37,2013-09-26 21:38:00,
2013-09-26 17:43:00,74.4,55.1,29.30,NNE,32,5.0,5.0,51,0.00,CLR,,0.00,WeatherDisplay:10.37,2013-09-26 21:43:00,
2013-09-26 17:48:00,74.0,55.3,29.30,North,11,1.1,1.1,52,0.00,CLR,,0.00,WeatherDisplay:10.37,2013-09-26 21:48:00,
2013-09-26 17:53:00,73.9,55.7,29.30,NE,51,1.1,0.0,53,0.00,CLR,,0.00,WeatherDisplay:10.37,2013-09-26 21:53:00,
2013-09-26 17:58:00,73.7,56.0,29.30,NE,51,0.0,0.0,54,0.00,CLR,,0.00,WeatherDisplay:10.37,2013-09-26 21:58:00,
2013-09-26 18:03:00,73.5,55.8,29.30,NE,47,0.0,0.0,54,0.00,CLR,,0.00,WeatherDisplay:10.37,2013-09-26 22:03:00,
2013-09-26 18:08:00,73.5,56.3,29.30,NE,47,0.0,0.0,55,0.00,CLR,,0.00,WeatherDisplay:10.37,2013-09-26 22:08:00,
2013-09-26 18:13:00,73.5,56.8,29.31,NE,45,0.0,0.0,56,0.00,CLR,,0.00,WeatherDisplay:10.37,2013-09-26 22:13:00,
2013-09-26 18:18:00,73.2,56.6,29.31,NNE,17,0.0,1.0,56,0.00,CLR,,0.00,WeatherDisplay:10.37,2013-09-26 22:18:00,
2013-09-26 18:23:00,72.7,56.1,29.31,North,7,2.3,2.3,56,0.00,CLR,,0.00,WeatherDisplay:10.37,2013-09-26 22:23:00,
2013-09-26 18:28:00,72.3,56.2,29.31,North,8,0.0,0.0,57,0.00,CLR,,0.00,WeatherDisplay:10.37,2013-09-26 22:28:00,
2013-09-26 18:33:00,72.1,56.5,29.31,North,7,0.0,0.0,58,0.00,CLR,,0.00,WeatherDisplay:10.37,2013-09-26 22:33:00,
2013-09-26 18:38:00,71.8,56.2,29.32,North,7,0.0,0.0,58,0.00,CLR,,0.00,WeatherDisplay:10.37,2013-09-26 22:38:00,
2013-09-26 18:43:00,71.5,56.4,29.32,North,7,0.0,0.0,59,0.00,CLR,,0.00,WeatherDisplay:10.37,2013-09-26 22:43:00,
2013-09-26 18:48:00,71.1,56.0,29.32,NE,37,0.0,0.0,59,0.00,CLR,,0.00,WeatherDisplay:10.37,2013-09-26 22:48:00,
2013-09-26 18:53:00,70.8,55.8,29.32,NE,37,0.0,0.0,59,0.00,CLR,,0.00,WeatherDisplay:10.37,2013-09-26 22:53:00,
2013-09-26 18:58:00,70.4,55.8,29.32,NE,37,0.0,0.0,60,0.00,CLR,,0.00,WeatherDisplay:10.37,2013-09-26 22:58:00,
2013-09-26 19:03:00,70.1,56.0,29.32,NE,37,0.0,0.0,61,0.00,CLR,,0.00,WeatherDisplay:10.37,2013-09-26 23:03:00,
2013-09-26 19:08:00,69.6,55.6,29.32,NE,37,0.0,0.0,61,0.00,CLR,,0.00,WeatherDisplay:10.37,2013-09-26 23:08:00,
2013-09-26 19:13:00,69.3,55.3,29.32,NNE,32,3.5,3.5,61,0.00,CLR,,0.00,WeatherDisplay:10.37,2013-09-26 23:13:00,
2013-09-26 19:18:00,68.9,55.3,29.32,NNE,30,0.0,0.0,62,0.00,CLR,,0.00,WeatherDisplay:10.37,2013-09-26 23:18:00,
2013-09-26 19:23:00,68.6,55.1,29.32,NNE,30,0.0,0.0,62,0.00,CLR,,0.00,WeatherDisplay:10.37,2013-09-26 23:23:00,
2013-09-26 19:28:00,68.3,56.1,29.32,NNE,30,0.0,0.0,65,0.00,CLR,,0.00,WeatherDisplay:10.37,2013-09-26 23:28:00,
2013-09-26 19:33:00,67.9,55.3,29.32,NNE,30,0.0,0.0,64,0.00,CLR,,0.00,WeatherDisplay:10.37,2013-09-26 23:33:00,
2013-09-26 19:38:00,67.6,55.0,29.33,NNE,30,0.0,0.0,64,0.00,CLR,,0.00,WeatherDisplay:10.37,2013-09-26 23:38:00,
2013-09-26 19:43:00,67.3,55.5,29.33,NNE,30,0.0,0.0,66,0.00,CLR,,0.00,WeatherDisplay:10.37,2013-09-26 23:43:00,
2013-09-26 19:48:00,67.1,57.0,29.33,NNE,30,0.0,0.0,70,0.00,CLR,,0.00,WeatherDisplay:10.37,2013-09-26 23:48:00,
2013-09-26 19:53:00,66.6,56.1,29.33,NNE,30,0.0,0.0,69,0.00,CLR,,0.00,WeatherDisplay:10.37,2013-09-26 23:53:00,
2013-09-26 19:58:00,66.3,55.4,29.33,NNE,30,0.0,0.0,68,0.00,CLR,,0.00,WeatherDisplay:10.37,2013-09-26 23:58:00,
2013-09-26 20:03:00,66.0,55.1,29.33,NNE,30,0.0,0.0,68,0.00,CLR,,0.00,WeatherDisplay:10.37,2013-09-27 00:03:00,
2013-09-26 20:10:00,65.6,54.8,29.34,NNE,30,0.0,0.4,68,0.00,CLR,,0.00,WeatherDisplay:10.37,2013-09-27 00:10:00,
2013-09-26 20:15:00,65.5,55.1,29.34,NNE,30,0.0,0.0,69,0.00,CLR,,0.00,WeatherDisplay:10.37,2013-09-27 00:15:00,
2013-09-26 20:20:00,65.3,54.9,29.34,NNE,23,0.0,0.2,69,0.00,CLR,,0.00,WeatherDisplay:10.37,2013-09-27 00:20:00,
2013-09-26 20:25:00,65.2,54.8,29.34,NNE,23,0.0,0.0,69,0.00,CLR,,0.00,WeatherDisplay:10.37,2013-09-27 00:25:00,
2013-09-26 20:30:00,65.2,54.8,29.34,NNE,23,0.0,0.0,69,0.00,CLR,,0.00,WeatherDisplay:10.37,2013-09-27 00:30:00,
2013-09-26 20:35:00,65.0,55.0,29.34,NNE,23,0.0,0.0,70,0.00,CLR,,0.00,WeatherDisplay:10.37,2013-09-27 00:35:00,
2013-09-26 20:40:00,64.8,54.8,29.35,NNE,23,0.0,0.0,70,0.00,CLR,,0.00,WeatherDisplay:10.37,2013-09-27 00:40:00,
2013-09-26 20:45:00,64.5,54.5,29.35,NNE,23,0.0,0.0,70,0.00,CLR,,0.00,WeatherDisplay:10.37,2013-09-27 00:45:00,
2013-09-26 20:51:00,64.3,54.3,29.35,NE,35,2.3,2.3,70,0.00,CLR,,0.00,WeatherDisplay:10.37,2013-09-27 00:51:00,
2013-09-26 20:56:00,64.2,54.2,29.35,NNE,27,0.0,0.0,70,0.00,CLR,,0.00,WeatherDisplay:10.37,2013-09-27 00:56:00,
2013-09-26 21:01:00,64.0,54.4,29.35,NNE,27,0.0,0.0,71,0.00,CLR,,0.00,WeatherDisplay:10.37,2013-09-27 01:01:00,
2013-09-26 21:06:00,63.9,54.3,29.35,NNE,27,1.1,0.0,71,0.00,CLR,,0.00,WeatherDisplay:10.37,2013-09-27 01:06:00,
2013-09-26 21:11:00,63.7,54.1,29.36,NE,44,0.0,0.0,71,0.00,CLR,,0.00,WeatherDisplay:10.37,2013-09-27 01:11:00,
2013-09-26 21:16:00,63.5,53.9,29.36,NE,44,0.0,0.0,71,0.00,CLR,,0.00,WeatherDisplay:10.37,2013-09-27 01:16:00,
2013-09-26 21:21:00,63.4,53.8,29.36,NE,44,0.0,0.0,71,0.00,CLR,,0.00,WeatherDisplay:10.37,2013-09-27 01:21:00,
2013-09-26 21:26:00,63.2,54.4,29.36,NE,44,0.0,0.0,73,0.00,CLR,,0.00,WeatherDisplay:10.37,2013-09-27 01:26:00,
2013-09-26 21:31:00,63.1,54.7,29.36,NE,44,0.0,0.0,74,0.00,CLR,,0.00,WeatherDisplay:10.37,2013-09-27 01:31:00,
2013-09-26 21:36:00,62.9,54.5,29.36,NE,44,0.0,0.0,74,0.00,CLR,,0.00,WeatherDisplay:10.37,2013-09-27 01:36:00,
2013-09-26 21:41:00,62.7,55.0,29.37,NE,44,0.0,0.0,76,0.00,CLR,,0.00,WeatherDisplay:10.37,2013-09-27 01:41:00,
2013-09-26 21:46:00,62.4,54.7,29.37,NE,44,0.0,0.0,76,0.00,CLR,,0.00,WeatherDisplay:10.37,2013-09-27 01:46:00,
2013-09-26 21:51:00,62.1,54.4,29.37,NE,44,0.0,0.0,76,0.00,CLR,,0.00,WeatherDisplay:10.37,2013-09-27 01:51:00,
2013-09-26 21:56:00,62.0,54.7,29.37,NE,44,0.0,0.0,77,0.00,CLR,,0.00,WeatherDisplay:10.37,2013-09-27 01:56:00,
2013-09-26 22:01:00,61.6,54.7,29.37,NE,44,0.0,0.0,78,0.00,CLR,,0.00,WeatherDisplay:10.37,2013-09-27 02:01:00,
2013-09-26 22:06:00,61.5,54.2,29.37,NE,44,0.0,0.0,77,0.00,CLR,,0.00,WeatherDisplay:10.37,2013-09-27 02:06:00,
2013-09-26 22:11:00,61.2,53.9,29.38,NE,44,0.0,0.0,77,0.00,CLR,,0.00,WeatherDisplay:10.37,2013-09-27 02:11:00,
2013-09-26 22:16:00,61.0,54.8,29.38,NE,44,0.0,0.0,80,0.00,CLR,,0.00,WeatherDisplay:10.37,2013-09-27 02:16:00,
2013-09-26 22:21:00,60.7,54.5,29.38,NE,44,0.0,0.0,80,0.00,CLR,,0.00,WeatherDisplay:10.37,2013-09-27 02:21:00,
2013-09-26 22:26:00,60.5,54.3,29.38,NE,44,0.0,0.0,80,0.00,CLR,,0.00,WeatherDisplay:10.37,2013-09-27 02:26:00,
2013-09-26 22:32:00,60.2,54.3,29.38,NE,44,0.0,0.0,81,0.00,CLR,,0.00,WeatherDisplay:10.37,2013-09-27 02:32:00,
2013-09-26 22:37:00,60.1,54.2,29.38,NE,44,0.0,0.0,81,0.00,CLR,,0.00,WeatherDisplay:10.37,2013-09-27 02:37:00,
2013-09-26 22:42:00,59.9,54.1,29.38,NE,44,0.0,0.0,81,0.00,CLR,,0.00,WeatherDisplay:10.37,2013-09-27 02:42:00,
2013-09-26 22:47:00,59.8,54.0,29.38,NE,44,0.0,0.0,81,0.00,CLR,,0.00,WeatherDisplay:10.37,2013-09-27 02:47:00,
2013-09-26 22:52:00,59.6,54.1,29.38,NE,44,0.0,0.0,82,0.00,CLR,,0.00,WeatherDisplay:10.37,2013-09-27 02:52:00,
2013-09-26 22:57:00,59.5,54.3,29.38,NE,44,0.0,0.0,83,0.00,CLR,,0.00,WeatherDisplay:10.37,2013-09-27 02:57:00,
2013-09-26 23:02:00,59.5,54.3,29.38,NE,44,0.0,0.0,83,0.00,CLR,,0.00,WeatherDisplay:10.37,2013-09-27 03:02:00,
2013-09-26 23:07:00,59.5,54.3,29.38,NE,44,0.0,0.0,83,0.00,CLR,,0.00,WeatherDisplay:10.37,2013-09-27 03:07:00,
2013-09-26 23:12:00,59.5,54.3,29.39,NE,44,0.0,0.0,83,0.00,CLR,,0.00,WeatherDisplay:10.37,2013-09-27 03:12:00,
2013-09-26 23:17:00,59.5,54.3,29.39,NE,44,0.0,0.0,83,0.00,CLR,,0.00,WeatherDisplay:10.37,2013-09-27 03:17:00,
2013-09-26 23:22:00,59.5,54.3,29.39,NE,44,0.0,0.0,83,0.00,CLR,,0.00,WeatherDisplay:10.37,2013-09-27 03:22:00,
2013-09-26 23:27:00,59.5,54.3,29.39,NE,44,0.0,0.0,83,0.00,CLR,,0.00,WeatherDisplay:10.37,2013-09-27 03:27:00,
2013-09-26 23:32:00,59.3,54.1,29.39,NE,44,0.0,0.0,83,0.00,CLR,,0.00,WeatherDisplay:10.37,2013-09-27 03:32:00,
2013-09-26 23:37:00,59.3,54.1,29.39,NE,44,0.0,0.0,83,0.00,CLR,,0.00,WeatherDisplay:10.37,2013-09-27 03:37:00,
2013-09-26 23:42:00,59.3,54.1,29.39,NE,44,0.0,0.0,83,0.00,CLR,,0.00,WeatherDisplay:10.37,2013-09-27 03:42:00,
2013-09-26 23:47:00,59.3,54.1,29.39,NE,44,1.1,0.0,83,0.00,CLR,,0.00,WeatherDisplay:10.37,2013-09-27 03:47:00,
2013-09-26 23:52:00,59.2,54.0,29.39,NE,44,0.0,0.0,83,0.00,CLR,,0.00,WeatherDisplay:10.37,2013-09-27 03:52:00,
2013-09-26 23:57:00,59.2,54.0,29.40,NE,44,0.0,0.0,83,0.00,CLR,,0.00,WeatherDisplay:10.37,2013-09-27 03:57:00,